createdAt,value
2022-11-13T00:01:29.515Z,12.88
2022-11-13T00:04:19.813Z,13.75
2022-11-13T00:07:10.266Z,13.80
2022-11-13T00:10:00.516Z,15.07
2022-11-13T00:12:50.530Z,15.70
2022-11-13T00:15:40.627Z,15.30
2022-11-13T00:18:31.228Z,14.60
2022-11-13T00:21:27.225Z,15.18
2022-11-13T00:24:17.169Z,13.77
2022-11-13T00:27:07.442Z,14.57
2022-11-13T00:30:00.486Z,14.63
2022-11-13T00:32:50.440Z,13.98
2022-11-13T00:35:43.472Z,14.35
2022-11-13T00:38:34.401Z,15.35
2022-11-13T00:41:24.616Z,14.35
2022-11-13T00:44:14.811Z,14.73
2022-11-13T00:47:06.746Z,16.13
2022-11-13T00:49:56.997Z,13.52
2022-11-13T00:52:47.237Z,12.32
2022-11-13T00:55:37.400Z,13.55
2022-11-13T00:58:28.173Z,14.05
2022-11-13T01:01:20.095Z,12.25
2022-11-13T01:04:10.414Z,15.13
2022-11-13T01:07:00.629Z,13.20
2022-11-13T01:09:51.458Z,12.88
2022-11-13T01:12:41.483Z,14.27
2022-11-13T01:15:31.868Z,13.48
2022-11-13T01:18:22.048Z,12.60
2022-11-13T01:21:13.732Z,11.90
2022-11-13T01:24:03.718Z,11.98
2022-11-13T01:26:54.015Z,11.85
2022-11-13T01:29:44.255Z,10.88
2022-11-13T01:32:34.549Z,10.63
2022-11-13T01:35:27.862Z,10.75
2022-11-13T01:38:17.844Z,10.90
2022-11-13T01:41:12.680Z,10.90
2022-11-13T01:44:03.264Z,12.18
2022-11-13T01:46:57.028Z,11.73
2022-11-13T01:49:49.209Z,10.18
2022-11-13T01:52:41.181Z,10.73
2022-11-13T01:55:31.285Z,11.70
2022-11-13T01:58:21.520Z,10.57
2022-11-13T02:01:12.015Z,12.13
2022-11-13T02:04:02.180Z,11.93
2022-11-13T02:06:56.613Z,11.88
2022-11-13T02:09:49.797Z,12.60
2022-11-13T02:12:46.379Z,13.50
2022-11-13T02:15:36.907Z,14.20
2022-11-13T02:18:30.618Z,13.02
2022-11-13T02:21:34.891Z,13.65
2022-11-13T02:24:33.360Z,12.07
2022-11-13T02:27:30.833Z,11.63
2022-11-13T02:30:27.735Z,11.30
2022-11-13T02:33:27.089Z,11.63
2022-11-13T02:36:22.902Z,11.15
2022-11-13T02:39:13.955Z,10.93
2022-11-13T02:42:03.934Z,11.45
2022-11-13T02:44:57.076Z,11.25
2022-11-13T02:47:47.340Z,11.32
2022-11-13T02:50:38.299Z,12.30
2022-11-13T02:53:28.205Z,11.82
2022-11-13T02:56:18.599Z,11.55
2022-11-13T02:59:08.558Z,12.80
2022-11-13T03:01:58.822Z,12.63
2022-11-13T03:05:11.499Z,13.55
2022-11-13T03:07:59.785Z,12.68
2022-11-13T03:10:54.029Z,13.02
2022-11-13T03:13:44.232Z,13.13
2022-11-13T03:16:34.779Z,12.23
2022-11-13T03:19:24.876Z,12.88
2022-11-13T03:22:15.138Z,12.27
2022-11-13T03:25:10.131Z,13.23
2022-11-13T03:28:03.194Z,13.85
2022-11-13T03:30:53.091Z,13.68
2022-11-13T03:33:43.117Z,13.65
2022-11-13T03:36:33.223Z,14.38
2022-11-13T03:39:23.655Z,12.38
2022-11-13T03:42:13.870Z,12.55
2022-11-13T03:45:04.134Z,12.40
2022-11-13T03:47:54.136Z,12.88
2022-11-13T03:50:47.193Z,13.35
2022-11-13T03:53:36.960Z,13.00
2022-11-13T03:56:27.109Z,12.77
2022-11-13T03:59:17.393Z,13.52
2022-11-13T04:02:07.636Z,12.50
2022-11-13T04:04:57.874Z,15.90
2022-11-13T04:07:48.889Z,15.25
2022-11-13T04:10:38.899Z,13.10
2022-11-13T04:13:29.135Z,12.38
2022-11-13T04:16:19.070Z,14.32
2022-11-13T04:19:09.321Z,16.67
2022-11-13T04:21:59.459Z,14.15
2022-11-13T04:24:49.973Z,13.35
2022-11-13T04:27:39.836Z,13.88
2022-11-13T04:30:30.049Z,14.45
2022-11-13T04:33:20.291Z,13.15
2022-11-13T04:36:10.733Z,14.10
2022-11-13T04:39:01.744Z,13.45
2022-11-13T04:42:10.606Z,12.57
2022-11-13T04:45:01.102Z,12.52
2022-11-13T04:47:51.529Z,12.80
2022-11-13T04:50:41.592Z,11.77
2022-11-13T04:53:31.773Z,13.07
2022-11-13T04:56:21.951Z,12.10
2022-11-13T04:59:12.110Z,12.20
2022-11-13T05:02:03.220Z,13.48
2022-11-13T05:04:53.451Z,12.35
2022-11-13T05:07:43.880Z,11.90
2022-11-13T05:10:34.097Z,12.10
2022-11-13T05:13:24.271Z,13.10
2022-11-13T05:16:15.064Z,13.10
2022-11-13T05:19:06.953Z,13.05
2022-11-13T05:21:57.504Z,12.75
2022-11-13T05:24:47.691Z,12.80
2022-11-13T05:27:37.882Z,12.80
2022-11-13T05:30:28.025Z,11.95
2022-11-13T05:33:18.211Z,12.38
2022-11-13T05:36:11.721Z,13.25
2022-11-13T05:39:01.724Z,13.68
2022-11-13T05:41:52.045Z,11.82
2022-11-13T05:44:42.152Z,11.48
2022-11-13T05:47:33.107Z,11.13
2022-11-13T05:50:23.544Z,12.75
2022-11-13T05:53:13.639Z,11.90
2022-11-13T05:56:11.212Z,14.00
2022-11-13T05:59:02.255Z,12.13
2022-11-13T06:01:55.468Z,11.82
2022-11-13T06:04:50.494Z,11.60
2022-11-13T06:07:41.988Z,11.98
2022-11-13T06:10:32.293Z,12.13
2022-11-13T06:13:25.216Z,12.60
2022-11-13T06:16:17.849Z,13.23
2022-11-13T06:19:10.323Z,11.88
2022-11-13T06:22:00.366Z,12.90
2022-11-13T06:24:50.514Z,11.80
2022-11-13T06:27:40.545Z,12.68
2022-11-13T06:30:30.541Z,13.52
2022-11-13T06:33:20.719Z,12.85
2022-11-13T06:36:22.540Z,12.80
2022-11-13T06:39:13.460Z,12.60
2022-11-13T06:42:03.674Z,13.32
2022-11-13T06:44:54.070Z,13.95
2022-11-13T06:47:44.585Z,12.77
2022-11-13T06:50:35.174Z,12.77
2022-11-13T06:53:25.516Z,12.13
2022-11-13T06:56:16.295Z,13.52
2022-11-13T06:59:08.449Z,13.02
2022-11-13T07:01:59.059Z,13.77
2022-11-13T07:04:51.018Z,14.80
2022-11-13T07:07:41.313Z,14.40
2022-11-13T07:10:31.197Z,15.25
2022-11-13T07:13:22.561Z,15.57
2022-11-13T07:16:17.321Z,14.25
2022-11-13T07:19:08.079Z,15.82
2022-11-13T07:21:58.168Z,15.23
2022-11-13T07:24:47.998Z,14.13
2022-11-13T07:27:38.025Z,14.18
2022-11-13T07:30:28.273Z,14.90
2022-11-13T07:33:18.478Z,12.98
2022-11-13T07:36:09.980Z,15.35
2022-11-13T07:39:00.627Z,14.77
2022-11-13T07:41:50.701Z,15.82
2022-11-13T07:44:54.104Z,15.77
2022-11-13T07:47:45.045Z,16.27
2022-11-13T07:50:37.423Z,16.23
2022-11-13T07:53:27.440Z,16.00
2022-11-13T07:56:22.719Z,15.93
2022-11-13T07:59:13.378Z,15.88
2022-11-13T08:02:03.571Z,14.70
2022-11-13T08:04:53.708Z,15.50
2022-11-13T08:07:51.067Z,14.15
2022-11-13T08:10:42.168Z,15.82
2022-11-13T08:13:32.473Z,13.95
2022-11-13T08:16:23.470Z,14.77
2022-11-13T08:19:13.657Z,14.38
2022-11-13T08:22:03.874Z,13.50
2022-11-13T08:24:53.999Z,15.63
2022-11-13T08:27:44.907Z,15.55
2022-11-13T08:30:35.340Z,16.50
2022-11-13T08:33:25.626Z,17.13
2022-11-13T08:36:15.799Z,18.02
2022-11-13T08:39:06.017Z,16.65
2022-11-13T08:41:59.001Z,16.35
2022-11-13T08:44:49.004Z,17.02
2022-11-13T08:47:39.226Z,18.25
2022-11-13T08:50:31.694Z,19.17
2022-11-13T08:53:22.784Z,18.77
2022-11-13T08:56:13.030Z,19.65
2022-11-13T08:59:03.634Z,18.50
2022-11-13T09:01:59.223Z,17.80
2022-11-13T09:07:39.098Z,19.35
2022-11-13T09:10:29.379Z,18.20
2022-11-13T09:13:19.301Z,18.48
2022-11-13T09:16:09.901Z,18.75
2022-11-13T09:19:04.098Z,19.52
2022-11-13T09:21:54.542Z,18.88
2022-11-13T09:24:44.448Z,18.73
2022-11-13T09:27:34.483Z,18.42
2022-11-13T09:30:25.470Z,19.15
2022-11-13T09:33:15.579Z,18.55
2022-11-13T09:36:14.241Z,19.85
2022-11-13T09:39:04.825Z,18.77
2022-11-13T09:42:18.012Z,19.85
2022-11-13T09:45:13.756Z,18.10
2022-11-13T09:48:25.656Z,19.05
2022-11-13T09:51:24.652Z,17.88
2022-11-13T09:54:15.256Z,18.08
2022-11-13T09:57:40.002Z,18.27
2022-11-13T10:00:34.288Z,18.85
2022-11-13T10:07:10.043Z,16.98
2022-11-13T10:10:16.264Z,17.77
2022-11-13T10:13:14.381Z,19.05
2022-11-13T10:16:29.364Z,19.50
2022-11-13T10:19:27.115Z,17.98
2022-11-13T10:22:34.122Z,18.52
2022-11-13T10:25:33.101Z,18.80
2022-11-13T10:31:49.184Z,18.17
2022-11-13T10:34:39.653Z,18.58
2022-11-13T10:38:09.299Z,19.20
2022-11-13T10:41:11.897Z,19.95
2022-11-13T10:44:26.548Z,18.65
2022-11-13T10:47:42.493Z,19.10
2022-11-13T10:50:31.617Z,19.75
2022-11-13T10:53:21.622Z,19.25
2022-11-13T10:56:30.040Z,20.50
2022-11-13T10:59:20.483Z,20.40
2022-11-13T11:02:22.918Z,20.92
2022-11-13T11:05:34.180Z,19.50
2022-11-13T11:08:35.657Z,20.50
2022-11-13T11:11:44.438Z,20.77
2022-11-13T11:14:41.268Z,21.40
2022-11-13T11:17:38.313Z,21.65
2022-11-13T11:20:51.328Z,22.58
2022-11-13T11:23:49.551Z,21.70
2022-11-13T11:26:58.790Z,21.52
2022-11-13T11:30:14.900Z,21.40
2022-11-13T11:33:20.467Z,21.83
2022-11-13T11:36:33.578Z,20.83
2022-11-13T11:39:48.765Z,23.55
2022-11-13T11:42:49.217Z,21.33
2022-11-13T11:45:45.056Z,22.60
2022-11-13T11:51:34.592Z,21.30
2022-11-13T11:54:40.529Z,19.80
2022-11-13T12:00:48.313Z,22.67
2022-11-13T12:03:49.952Z,23.80
2022-11-13T12:06:57.092Z,23.15
2022-11-13T12:09:53.611Z,21.90
2022-11-13T12:13:22.649Z,24.48
2022-11-13T12:16:27.341Z,23.55
2022-11-13T12:19:22.982Z,22.75
2022-11-13T12:22:30.606Z,24.30
2022-11-13T12:25:39.210Z,24.92
2022-11-13T12:28:40.934Z,25.35
2022-11-13T12:32:01.337Z,26.60
2022-11-13T12:35:18.835Z,24.08
2022-11-13T12:38:22.401Z,25.15
2022-11-13T12:41:29.158Z,23.50
2022-11-13T12:44:25.440Z,24.52
2022-11-13T12:47:17.062Z,25.48
2022-11-13T12:50:32.139Z,26.42
2022-11-13T12:53:31.247Z,22.45
2022-11-13T12:56:24.082Z,25.33
2022-11-13T12:59:30.251Z,25.80
2022-11-13T13:02:55.881Z,25.33
2022-11-13T13:06:16.623Z,23.27
2022-11-13T13:09:41.807Z,25.98
2022-11-13T13:13:08.660Z,19.20
2022-11-13T13:16:05.327Z,26.45
2022-11-13T13:19:21.427Z,26.75
2022-11-13T13:22:24.019Z,26.73
2022-11-13T13:25:32.672Z,26.02
2022-11-13T13:28:25.877Z,28.35
2022-11-13T13:31:39.025Z,27.98
2022-11-13T13:34:40.951Z,27.17
2022-11-13T13:37:30.829Z,28.45
2022-11-13T13:40:54.942Z,27.73
2022-11-13T13:44:06.412Z,27.70
2022-11-13T13:46:57.558Z,28.10
2022-11-13T13:49:47.688Z,27.70
2022-11-13T13:52:38.074Z,27.90
2022-11-13T13:55:35.665Z,29.95
2022-11-13T13:58:31.272Z,28.70
2022-11-13T14:01:30.910Z,29.55
2022-11-13T14:04:28.887Z,27.85
2022-11-13T14:07:24.564Z,30.08
2022-11-13T14:10:20.590Z,31.10
2022-11-13T14:13:15.440Z,30.10
2022-11-13T14:16:07.642Z,29.02
2022-11-13T14:19:05.376Z,31.17
2022-11-13T14:22:05.033Z,30.80
2022-11-13T14:25:00.991Z,30.17
2022-11-13T14:27:51.903Z,30.90
2022-11-13T14:30:42.229Z,28.70
2022-11-13T14:33:48.212Z,30.20
2022-11-13T14:39:33.912Z,30.95
2022-11-13T14:42:37.236Z,29.63
2022-11-13T14:45:30.728Z,38.50
2022-11-13T14:48:32.703Z,41.22
2022-11-13T14:51:29.919Z,39.38
2022-11-13T14:55:13.720Z,31.63
2022-11-13T14:57:56.616Z,33.47
2022-11-13T15:00:46.702Z,31.52
2022-11-13T15:03:36.994Z,29.67
2022-11-13T15:06:38.081Z,32.90
2022-11-13T15:09:31.049Z,32.60
2022-11-13T15:12:21.351Z,30.58
2022-11-13T15:15:25.260Z,31.48
2022-11-13T15:18:19.878Z,33.30
2022-11-13T15:21:10.923Z,30.00
2022-11-13T15:24:01.726Z,31.85
2022-11-13T15:26:52.231Z,29.98
2022-11-13T15:29:44.617Z,32.15
2022-11-13T15:32:35.779Z,32.35
2022-11-13T15:35:25.719Z,31.67
2022-11-13T15:38:15.987Z,33.35
2022-11-13T15:41:22.706Z,33.20
2022-11-13T15:44:18.522Z,32.88
2022-11-13T15:47:30.139Z,33.22
2022-11-13T15:50:23.446Z,31.08
2022-11-13T15:53:13.743Z,44.42
2022-11-13T15:56:06.331Z,34.05
2022-11-13T15:58:56.748Z,32.90
2022-11-13T16:01:47.806Z,30.35
2022-11-13T16:04:55.608Z,31.40
2022-11-13T16:07:46.966Z,31.25
2022-11-13T16:10:37.043Z,29.58
2022-11-13T16:13:27.555Z,32.30
2022-11-13T16:16:23.240Z,32.70
2022-11-13T16:19:18.212Z,29.88
2022-11-13T16:22:20.312Z,29.83
2022-11-13T16:25:17.209Z,29.35
2022-11-13T16:28:16.124Z,30.48
2022-11-13T16:31:06.894Z,28.33
2022-11-13T16:33:56.893Z,28.52
2022-11-13T16:36:47.761Z,27.55
2022-11-13T16:39:37.750Z,26.80
2022-11-13T16:42:30.924Z,28.40
2022-11-13T16:45:22.132Z,29.77
2022-11-13T16:48:13.742Z,27.88
2022-11-13T16:51:04.194Z,27.63
2022-11-13T16:53:54.511Z,26.40
2022-11-13T16:56:46.681Z,28.48
2022-11-13T16:59:37.075Z,26.08
2022-11-13T17:02:27.685Z,26.50
2022-11-13T17:05:18.863Z,26.85
2022-11-13T17:08:12.519Z,28.40
2022-11-13T17:11:02.798Z,27.17
2022-11-13T17:13:58.204Z,26.42
2022-11-13T17:19:43.799Z,26.55
2022-11-13T17:22:34.289Z,25.42
2022-11-13T17:25:26.781Z,28.40
2022-11-13T17:28:17.076Z,26.88
2022-11-13T17:31:10.241Z,27.58
2022-11-13T17:34:00.648Z,31.98
2022-11-13T17:36:51.025Z,30.17
2022-11-13T17:39:41.477Z,30.95
2022-11-13T17:42:31.709Z,31.10
2022-11-13T17:45:21.922Z,28.60
2022-11-13T17:48:12.115Z,30.20
2022-11-13T17:51:06.727Z,34.47
2022-11-13T17:53:56.998Z,32.40
2022-11-13T17:56:47.351Z,31.40
2022-11-13T17:59:37.229Z,32.78
2022-11-13T18:02:27.818Z,30.65
2022-11-13T18:05:18.048Z,31.15
2022-11-13T18:08:11.564Z,32.05
2022-11-13T18:11:07.949Z,31.50
2022-11-13T18:13:57.839Z,30.80
2022-11-13T18:16:48.082Z,30.70
2022-11-13T18:19:39.402Z,36.50
2022-11-13T18:22:29.860Z,30.73
2022-11-13T18:25:20.193Z,29.90
2022-11-13T18:28:11.624Z,29.77
2022-11-13T18:31:10.199Z,29.70
2022-11-13T18:34:02.591Z,31.17
2022-11-13T18:36:55.341Z,30.95
2022-11-13T18:39:45.548Z,31.60
2022-11-13T18:42:35.724Z,31.90
2022-11-13T18:45:25.882Z,34.38
2022-11-13T18:48:16.124Z,30.50
2022-11-13T18:51:27.777Z,31.85
2022-11-13T18:54:18.113Z,32.65
2022-11-13T18:57:08.293Z,32.42
2022-11-13T18:59:58.737Z,32.55
2022-11-13T19:02:52.144Z,31.88
2022-11-13T19:05:44.301Z,31.55
2022-11-13T19:08:40.417Z,32.28
2022-11-13T19:11:32.040Z,35.53
2022-11-13T19:14:21.971Z,32.80
2022-11-13T19:17:12.285Z,30.63
2022-11-13T19:20:02.575Z,34.22
2022-11-13T19:22:52.739Z,33.78
2022-11-13T19:25:43.071Z,33.45
2022-11-13T19:28:33.481Z,33.40
2022-11-13T19:31:25.958Z,33.83
2022-11-13T19:34:16.291Z,33.67
2022-11-13T19:37:06.476Z,30.95
2022-11-13T19:39:56.368Z,30.33
2022-11-13T19:42:46.348Z,31.45
2022-11-13T19:45:36.298Z,32.08
2022-11-13T19:48:26.574Z,30.83
2022-11-13T19:51:19.732Z,32.05
2022-11-13T19:54:09.766Z,29.15
2022-11-13T19:56:59.938Z,29.92
2022-11-13T19:59:49.994Z,26.20
2022-11-13T20:02:40.181Z,29.48
2022-11-13T20:05:30.911Z,30.40
2022-11-13T20:08:25.349Z,29.70
2022-11-13T20:11:17.813Z,29.63
2022-11-13T20:14:10.389Z,29.48
2022-11-13T20:17:00.540Z,29.38
2022-11-13T20:19:50.828Z,28.85
2022-11-13T20:22:41.046Z,30.17
2022-11-13T20:25:31.304Z,31.30
2022-11-13T20:28:21.481Z,30.33
2022-11-13T20:31:19.479Z,29.85
2022-11-13T20:34:10.034Z,30.00
2022-11-13T20:37:02.347Z,29.08
2022-11-13T20:39:52.698Z,32.10
2022-11-13T20:42:43.078Z,30.15
2022-11-13T20:45:33.168Z,29.88
2022-11-13T20:48:23.300Z,29.70
2022-11-13T20:51:16.868Z,31.27
2022-11-13T20:54:06.756Z,29.38
2022-11-13T20:56:56.951Z,28.60
2022-11-13T20:59:47.163Z,28.92
2022-11-13T21:02:37.379Z,29.60
2022-11-13T21:05:28.107Z,28.77
2022-11-13T21:08:18.099Z,29.45
2022-11-13T21:11:13.105Z,27.83
2022-11-13T21:14:03.749Z,28.73
2022-11-13T21:16:53.757Z,27.67
2022-11-13T21:19:45.234Z,27.17
2022-11-13T21:22:35.514Z,27.63
2022-11-13T21:25:25.518Z,28.10
2022-11-13T21:28:18.360Z,27.23
2022-11-13T21:31:17.645Z,27.98
2022-11-13T21:34:09.949Z,28.13
2022-11-13T21:37:00.038Z,26.55
2022-11-13T21:39:51.552Z,27.65
2022-11-13T21:42:41.932Z,26.08
2022-11-13T21:45:34.020Z,27.95
2022-11-13T21:48:24.067Z,27.42
2022-11-13T21:51:14.666Z,27.52
2022-11-13T21:54:05.364Z,28.13
2022-11-13T21:56:55.314Z,26.83
2022-11-13T21:59:45.449Z,26.80
2022-11-13T22:02:35.547Z,28.00
2022-11-13T22:05:26.014Z,27.48
2022-11-13T22:08:18.595Z,29.63
2022-11-13T22:11:09.158Z,27.65
2022-11-13T22:14:00.181Z,29.90
2022-11-13T22:16:50.512Z,27.42
2022-11-13T22:19:40.849Z,26.45
2022-11-13T22:22:31.020Z,26.85
2022-11-13T22:25:21.050Z,27.42
2022-11-13T22:28:11.050Z,26.02
2022-11-13T22:31:01.425Z,26.13
2022-11-13T22:33:54.964Z,26.92
2022-11-13T22:36:45.317Z,26.60
2022-11-13T22:39:35.464Z,27.45
2022-11-13T22:42:25.431Z,25.08
2022-11-13T22:45:23.737Z,25.70
2022-11-13T22:48:14.331Z,25.33
2022-11-13T22:51:09.423Z,26.58
2022-11-13T22:54:05.436Z,27.00
2022-11-13T22:56:56.643Z,25.17
2022-11-13T22:59:46.839Z,25.52
2022-11-13T23:02:37.007Z,26.17
2022-11-13T23:05:27.293Z,25.95
2022-11-13T23:08:17.169Z,26.30
2022-11-13T23:11:16.171Z,26.48
2022-11-13T23:14:11.213Z,25.55
2022-11-13T23:17:02.006Z,25.95
2022-11-13T23:19:52.148Z,24.13
2022-11-13T23:22:42.441Z,27.40
2022-11-13T23:25:36.417Z,25.73
2022-11-13T23:28:28.229Z,25.77
2022-11-13T23:31:18.802Z,27.35
2022-11-13T23:34:08.861Z,26.20
2022-11-13T23:36:58.984Z,27.25
2022-11-13T23:39:49.237Z,25.50
2022-11-13T23:42:54.611Z,31.02
2022-11-13T23:48:35.507Z,33.60
2022-11-13T23:51:25.391Z,35.30
2022-11-13T23:54:15.315Z,35.25
2022-11-13T23:57:05.421Z,34.17
2022-11-13T23:59:55.580Z,33.63
